createdAt,value
2022-12-25T00:01:22.362Z,9.63
2022-12-25T00:04:07.333Z,9.62
2022-12-25T00:06:52.686Z,9.69
2022-12-25T00:09:37.508Z,9.61
2022-12-25T00:12:22.396Z,9.75
2022-12-25T00:15:07.326Z,9.80
2022-12-25T00:17:52.197Z,9.63
2022-12-25T00:20:37.214Z,9.85
2022-12-25T00:23:22.065Z,9.64
2022-12-25T00:26:07.031Z,9.61
2022-12-25T00:28:51.682Z,9.67
2022-12-25T00:31:36.776Z,9.49
2022-12-25T00:34:21.637Z,9.45
2022-12-25T00:37:06.400Z,9.30
2022-12-25T00:39:51.285Z,9.34
2022-12-25T00:42:36.204Z,9.42
2022-12-25T00:45:21.258Z,9.31
2022-12-25T00:48:06.045Z,9.20
2022-12-25T00:50:51.025Z,8.99
2022-12-25T00:53:35.957Z,8.85
2022-12-25T00:56:20.902Z,8.77
2022-12-25T00:59:05.750Z,8.66
2022-12-25T01:01:51.049Z,9.03
2022-12-25T01:04:36.185Z,9.06
2022-12-25T01:07:21.185Z,9.27
2022-12-25T01:10:06.178Z,9.40
2022-12-25T01:12:51.221Z,9.54
2022-12-25T01:15:36.261Z,9.49
2022-12-25T01:18:21.162Z,9.67
2022-12-25T01:21:06.257Z,9.49
2022-12-25T01:23:51.119Z,9.70
2022-12-25T01:26:36.269Z,9.67
2022-12-25T01:29:21.215Z,9.71
2022-12-25T01:32:06.164Z,9.52
2022-12-25T01:34:55.875Z,9.36
2022-12-25T01:37:41.349Z,9.46
2022-12-25T01:40:26.334Z,9.62
2022-12-25T01:43:15.529Z,9.62
2022-12-25T01:46:03.862Z,9.45
2022-12-25T01:48:49.062Z,9.40
2022-12-25T01:51:33.963Z,9.50
2022-12-25T01:54:18.860Z,9.13
2022-12-25T01:57:03.676Z,9.08
2022-12-25T01:59:48.713Z,9.28
2022-12-25T02:02:33.574Z,9.32
2022-12-25T02:05:18.912Z,9.07
2022-12-25T02:08:03.727Z,9.46
2022-12-25T02:10:48.706Z,9.25
2022-12-25T02:13:33.496Z,9.20
2022-12-25T02:16:18.616Z,9.08
2022-12-25T02:19:03.393Z,9.11
2022-12-25T02:21:48.301Z,9.38
2022-12-25T02:24:33.273Z,9.00
2022-12-25T02:27:18.137Z,8.99
2022-12-25T02:30:02.918Z,9.00
2022-12-25T02:32:47.733Z,8.67
2022-12-25T02:35:32.688Z,8.91
2022-12-25T02:38:17.468Z,9.23
2022-12-25T02:41:02.352Z,9.15
2022-12-25T02:43:47.172Z,9.00
2022-12-25T02:46:32.135Z,9.06
2022-12-25T02:49:16.979Z,8.90
2022-12-25T02:52:01.783Z,9.05
2022-12-25T02:54:46.710Z,9.03
2022-12-25T02:57:31.625Z,9.22
2022-12-25T03:00:16.473Z,8.92
2022-12-25T03:03:01.439Z,9.50
2022-12-25T03:05:46.236Z,8.81
2022-12-25T03:08:31.144Z,8.53
2022-12-25T03:11:16.075Z,8.27
2022-12-25T03:14:01.134Z,8.96
2022-12-25T03:16:46.035Z,8.53
2022-12-25T03:19:30.947Z,8.85
2022-12-25T03:22:15.788Z,8.90
2022-12-25T03:25:00.738Z,9.08
2022-12-25T03:27:45.669Z,9.00
2022-12-25T03:30:30.589Z,8.57
2022-12-25T03:33:43.168Z,8.44
2022-12-25T03:36:20.377Z,8.46
2022-12-25T03:39:05.407Z,8.53
2022-12-25T03:41:50.260Z,8.59
2022-12-25T03:44:35.173Z,8.40
2022-12-25T03:47:20.008Z,8.37
2022-12-25T03:50:04.985Z,8.56
2022-12-25T03:52:49.913Z,8.17
2022-12-25T03:55:34.673Z,8.37
2022-12-25T03:58:19.642Z,8.53
2022-12-25T04:01:04.504Z,8.55
2022-12-25T04:03:49.434Z,8.06
2022-12-25T04:06:34.218Z,8.54
2022-12-25T04:09:19.093Z,8.64
2022-12-25T04:12:03.948Z,8.66
2022-12-25T04:14:48.917Z,8.59
2022-12-25T04:17:33.773Z,8.38
2022-12-25T04:20:18.547Z,8.42
2022-12-25T04:23:03.446Z,8.20
2022-12-25T04:25:48.335Z,8.21
2022-12-25T04:28:33.318Z,8.00
2022-12-25T04:31:18.187Z,8.41
2022-12-25T04:34:03.537Z,8.32
2022-12-25T04:36:48.296Z,8.35
2022-12-25T04:39:33.233Z,8.15
2022-12-25T04:42:18.300Z,8.14
2022-12-25T04:45:03.119Z,8.40
2022-12-25T04:47:48.008Z,8.44
2022-12-25T04:50:32.822Z,8.40
2022-12-25T04:53:17.698Z,8.51
2022-12-25T04:56:02.577Z,8.15
2022-12-25T04:58:47.589Z,8.14
2022-12-25T05:01:32.496Z,7.98
2022-12-25T05:04:17.663Z,8.03
2022-12-25T05:07:02.669Z,8.05
2022-12-25T05:09:47.500Z,8.00
2022-12-25T05:12:32.450Z,8.29
2022-12-25T05:15:17.245Z,8.18
2022-12-25T05:18:02.082Z,8.15
2022-12-25T05:20:46.986Z,7.73
2022-12-25T05:23:31.910Z,7.94
2022-12-25T05:26:16.837Z,8.07
2022-12-25T05:29:01.690Z,7.98
2022-12-25T05:31:46.651Z,8.14
2022-12-25T05:34:31.478Z,8.23
2022-12-25T05:37:16.443Z,8.08
2022-12-25T05:40:01.254Z,8.14
2022-12-25T05:42:46.176Z,8.00
2022-12-25T05:45:30.868Z,8.02
2022-12-25T05:48:15.949Z,8.07
2022-12-25T05:51:00.862Z,8.02
2022-12-25T05:53:45.789Z,8.26
2022-12-25T05:56:30.676Z,8.01
2022-12-25T05:59:15.527Z,7.95
2022-12-25T06:02:00.705Z,7.73
2022-12-25T06:04:45.976Z,7.73
2022-12-25T06:07:30.876Z,7.91
2022-12-25T06:10:15.738Z,8.14
2022-12-25T06:13:00.673Z,8.21
2022-12-25T06:15:45.579Z,8.04
2022-12-25T06:18:30.407Z,8.04
2022-12-25T06:21:15.433Z,8.19
2022-12-25T06:24:00.376Z,8.10
2022-12-25T06:26:45.737Z,8.29
2022-12-25T06:29:30.559Z,8.07
2022-12-25T06:32:15.529Z,8.26
2022-12-25T06:35:00.346Z,7.81
2022-12-25T06:37:45.303Z,7.81
2022-12-25T06:40:30.460Z,7.89
2022-12-25T06:43:15.295Z,8.14
2022-12-25T06:46:00.365Z,8.31
2022-12-25T06:48:45.059Z,8.23
2022-12-25T06:51:29.997Z,8.38
2022-12-25T06:54:14.903Z,8.72
2022-12-25T06:56:59.722Z,8.42
2022-12-25T06:59:48.436Z,8.35
2022-12-25T07:02:36.444Z,8.36
2022-12-25T07:05:21.749Z,8.84
2022-12-25T07:08:06.641Z,8.56
2022-12-25T07:10:51.550Z,8.34
2022-12-25T07:13:36.646Z,8.85
2022-12-25T07:16:21.595Z,9.01
2022-12-25T07:19:06.901Z,9.24
2022-12-25T07:21:51.797Z,9.16
2022-12-25T07:24:36.747Z,9.24
2022-12-25T07:27:21.619Z,8.87
2022-12-25T07:30:06.527Z,8.70
2022-12-25T07:32:51.437Z,8.70
2022-12-25T07:35:36.125Z,8.91
2022-12-25T07:38:21.065Z,8.90
2022-12-25T07:41:05.898Z,9.26
2022-12-25T07:43:50.915Z,8.94
2022-12-25T07:46:35.740Z,8.93
2022-12-25T07:49:20.604Z,9.04
2022-12-25T07:52:05.496Z,9.17
2022-12-25T07:54:50.487Z,9.31
2022-12-25T07:57:35.380Z,9.16
2022-12-25T08:00:20.341Z,9.00
2022-12-25T08:03:05.513Z,9.30
2022-12-25T08:05:50.485Z,9.33
2022-12-25T08:08:35.481Z,9.58
2022-12-25T08:11:20.313Z,9.73
2022-12-25T08:14:05.246Z,9.59
2022-12-25T08:16:50.195Z,9.57
2022-12-25T08:19:35.060Z,9.53
2022-12-25T08:22:20.152Z,9.98
2022-12-25T08:25:05.048Z,9.82
2022-12-25T08:27:50.051Z,9.29
2022-12-25T08:30:35.032Z,9.67
2022-12-25T08:33:19.883Z,9.41
2022-12-25T08:36:04.668Z,9.41
2022-12-25T08:38:49.540Z,9.62
2022-12-25T08:41:34.523Z,9.73
2022-12-25T08:44:19.437Z,9.87
2022-12-25T08:47:04.389Z,9.92
2022-12-25T08:49:49.284Z,9.85
2022-12-25T08:52:34.778Z,10.01
2022-12-25T08:55:19.672Z,10.45
2022-12-25T08:58:04.786Z,10.25
2022-12-25T09:00:49.606Z,10.12
2022-12-25T09:03:34.596Z,10.29
2022-12-25T09:06:19.316Z,10.40
2022-12-25T09:09:04.225Z,10.48
2022-12-25T09:11:49.041Z,10.50
2022-12-25T09:14:33.947Z,10.47
2022-12-25T09:17:19.002Z,10.62
2022-12-25T09:20:03.753Z,10.88
2022-12-25T09:22:48.641Z,10.80
2022-12-25T09:25:33.528Z,10.89
2022-12-25T09:28:18.424Z,10.56
2022-12-25T09:31:03.449Z,10.86
2022-12-25T09:33:48.273Z,10.77
2022-12-25T09:36:33.286Z,10.85
2022-12-25T09:39:18.110Z,10.54
2022-12-25T09:42:03.120Z,10.86
2022-12-25T09:44:48.040Z,10.98
2022-12-25T09:47:33.030Z,11.02
2022-12-25T09:50:18.164Z,10.78
2022-12-25T09:53:03.021Z,10.91
2022-12-25T09:55:47.979Z,10.97
2022-12-25T09:58:32.953Z,10.65
2022-12-25T10:01:18.040Z,10.93
2022-12-25T10:04:03.318Z,11.05
2022-12-25T10:06:48.258Z,11.00
2022-12-25T10:09:33.013Z,10.40
2022-12-25T10:12:17.874Z,10.34
2022-12-25T10:15:02.688Z,10.34
2022-12-25T10:17:47.608Z,10.20
2022-12-25T10:20:32.512Z,10.26
2022-12-25T10:23:17.535Z,10.49
2022-12-25T10:26:02.506Z,10.34
2022-12-25T10:28:47.333Z,10.88
2022-12-25T10:31:32.461Z,10.77
2022-12-25T10:34:17.289Z,10.75
2022-12-25T10:37:02.297Z,11.02
2022-12-25T10:39:47.311Z,10.90
2022-12-25T10:42:32.494Z,11.06
2022-12-25T10:45:17.967Z,10.79
2022-12-25T10:48:07.065Z,11.01
2022-12-25T10:50:52.860Z,11.08
2022-12-25T10:53:37.746Z,10.98
2022-12-25T10:56:23.032Z,10.88
2022-12-25T10:59:08.100Z,10.86
2022-12-25T11:01:55.533Z,11.20
2022-12-25T11:04:40.883Z,11.11
2022-12-25T11:07:25.834Z,10.50
2022-12-25T11:10:10.856Z,10.31
2022-12-25T11:12:55.869Z,10.41
2022-12-25T11:15:40.894Z,10.12
2022-12-25T11:18:26.192Z,10.40
2022-12-25T11:21:11.052Z,10.61
2022-12-25T11:23:55.913Z,10.99
2022-12-25T11:26:40.754Z,10.11
2022-12-25T11:29:25.731Z,10.51
2022-12-25T11:32:10.689Z,10.20
2022-12-25T11:34:55.614Z,10.19
2022-12-25T11:37:40.632Z,10.62
2022-12-25T11:40:25.466Z,10.98
2022-12-25T11:43:10.381Z,10.91
2022-12-25T11:45:55.160Z,11.01
2022-12-25T11:48:39.955Z,11.09
2022-12-25T11:51:24.832Z,9.96
2022-12-25T11:54:09.723Z,10.25
2022-12-25T11:56:54.595Z,10.70
2022-12-25T11:59:39.372Z,10.41
2022-12-25T12:02:24.488Z,10.55
2022-12-25T12:05:09.663Z,10.33
2022-12-25T12:07:54.764Z,10.76
2022-12-25T12:10:39.576Z,10.20
2022-12-25T12:13:24.569Z,10.75
2022-12-25T12:16:09.436Z,10.87
2022-12-25T12:18:54.249Z,11.06
2022-12-25T12:21:39.752Z,10.79
2022-12-25T12:24:24.488Z,10.76
2022-12-25T12:27:09.393Z,10.94
2022-12-25T12:29:54.225Z,10.64
2022-12-25T12:32:39.118Z,11.06
2022-12-25T12:35:24.026Z,11.48
2022-12-25T12:38:09.000Z,11.18
2022-12-25T12:40:53.997Z,10.80
2022-12-25T12:43:38.905Z,10.89
2022-12-25T12:46:30.198Z,10.70
2022-12-25T12:49:16.366Z,11.30
2022-12-25T12:52:01.166Z,11.40
2022-12-25T12:54:46.168Z,10.80
2022-12-25T12:57:31.033Z,10.80
2022-12-25T13:00:15.883Z,11.62
2022-12-25T13:03:00.977Z,11.77
2022-12-25T13:05:46.321Z,11.89
2022-12-25T13:08:31.144Z,11.72
2022-12-25T13:11:15.885Z,11.75
2022-12-25T13:14:00.762Z,11.90
2022-12-25T13:16:46.105Z,11.52
2022-12-25T13:19:31.053Z,10.85
2022-12-25T13:22:15.925Z,10.61
2022-12-25T13:25:00.834Z,11.14
2022-12-25T13:27:45.725Z,11.04
2022-12-25T13:30:30.545Z,10.96
2022-12-25T13:33:15.498Z,10.72
2022-12-25T13:36:00.336Z,11.17
2022-12-25T13:38:45.256Z,11.18
2022-12-25T13:41:29.974Z,11.58
2022-12-25T13:44:14.974Z,11.38
2022-12-25T13:46:59.844Z,11.35
2022-12-25T13:49:44.843Z,11.81
2022-12-25T13:52:29.804Z,11.51
2022-12-25T13:55:14.803Z,11.92
2022-12-25T13:57:59.643Z,11.79
2022-12-25T14:00:44.688Z,11.01
2022-12-25T14:03:29.776Z,11.43
2022-12-25T14:06:14.579Z,11.73
2022-12-25T14:08:59.834Z,11.83
2022-12-25T14:11:44.947Z,11.28
2022-12-25T14:14:29.836Z,11.24
2022-12-25T14:17:14.799Z,10.87
2022-12-25T14:20:04.002Z,10.50
2022-12-25T14:22:53.224Z,10.13
2022-12-25T14:25:38.238Z,10.32
2022-12-25T14:28:22.977Z,10.62
2022-12-25T14:31:08.087Z,10.81
2022-12-25T14:33:53.446Z,10.10
2022-12-25T14:36:38.423Z,10.40
2022-12-25T14:39:23.205Z,10.91
2022-12-25T14:42:08.107Z,10.94
2022-12-25T14:44:52.981Z,10.96
2022-12-25T14:47:37.703Z,10.92
2022-12-25T14:50:22.653Z,11.14
2022-12-25T14:53:07.448Z,10.92
2022-12-25T14:55:53.011Z,11.26
2022-12-25T14:58:38.070Z,10.97
2022-12-25T15:01:23.050Z,10.88
2022-12-25T15:04:08.476Z,10.68
2022-12-25T15:06:53.378Z,10.72
2022-12-25T15:09:38.513Z,10.79
2022-12-25T15:12:23.465Z,10.56
2022-12-25T15:15:08.401Z,10.31
2022-12-25T15:17:53.220Z,10.10
2022-12-25T15:20:38.243Z,10.36
2022-12-25T15:23:23.028Z,10.53
2022-12-25T15:26:08.000Z,10.21
2022-12-25T15:28:52.935Z,10.38
2022-12-25T15:31:37.882Z,10.18
2022-12-25T15:34:22.813Z,9.97
2022-12-25T15:37:07.609Z,9.90
2022-12-25T15:39:52.521Z,9.78
2022-12-25T15:42:38.186Z,9.50
2022-12-25T15:45:23.120Z,9.63
2022-12-25T15:48:08.254Z,9.68
2022-12-25T15:50:53.254Z,9.29
2022-12-25T15:53:38.170Z,9.73
2022-12-25T15:56:23.052Z,9.41
2022-12-25T15:59:08.115Z,9.65
2022-12-25T16:01:53.063Z,9.33
2022-12-25T16:04:38.385Z,9.43
2022-12-25T16:07:23.377Z,9.41
2022-12-25T16:10:08.231Z,9.55
2022-12-25T16:12:53.121Z,8.97
2022-12-25T16:15:37.959Z,8.97
2022-12-25T16:18:22.929Z,8.81
2022-12-25T16:21:07.702Z,8.79
2022-12-25T16:23:52.606Z,8.90
2022-12-25T16:26:37.559Z,8.92
2022-12-25T16:29:22.448Z,9.03
2022-12-25T16:32:07.445Z,8.88
2022-12-25T16:34:52.408Z,9.23
2022-12-25T16:37:37.349Z,8.91
2022-12-25T16:40:22.137Z,8.70
2022-12-25T16:43:07.206Z,9.07
2022-12-25T16:45:52.036Z,8.82
2022-12-25T16:48:37.017Z,8.94
2022-12-25T16:51:21.844Z,8.95
2022-12-25T16:54:06.750Z,9.12
2022-12-25T16:56:51.614Z,9.10
2022-12-25T16:59:36.474Z,9.41
2022-12-25T17:02:21.591Z,9.05
2022-12-25T17:05:06.815Z,9.32
2022-12-25T17:07:51.750Z,9.26
2022-12-25T17:10:36.713Z,9.05
2022-12-25T17:13:21.621Z,8.99
2022-12-25T17:16:06.563Z,8.81
2022-12-25T17:18:51.457Z,8.89
2022-12-25T17:21:36.373Z,9.15
2022-12-25T17:24:21.386Z,8.76
2022-12-25T17:27:06.274Z,8.92
2022-12-25T17:29:51.091Z,9.28
2022-12-25T17:32:36.266Z,9.01
2022-12-25T17:35:21.060Z,8.42
2022-12-25T17:38:06.047Z,8.52
2022-12-25T17:40:51.053Z,8.60
2022-12-25T17:43:36.001Z,8.72
2022-12-25T17:46:21.037Z,8.43
2022-12-25T17:49:06.368Z,8.40
2022-12-25T17:51:51.334Z,8.67
2022-12-25T17:54:36.205Z,8.64
2022-12-25T17:57:21.163Z,8.57
2022-12-25T18:00:06.005Z,8.69
2022-12-25T18:02:51.172Z,8.74
2022-12-25T18:05:36.302Z,8.27
2022-12-25T18:08:21.265Z,8.71
2022-12-25T18:11:06.275Z,8.57
2022-12-25T18:13:51.077Z,8.55
2022-12-25T18:16:36.104Z,8.74
2022-12-25T18:19:21.347Z,8.44
2022-12-25T18:22:06.310Z,8.46
2022-12-25T18:24:51.311Z,8.53
2022-12-25T18:27:36.245Z,8.34
2022-12-25T18:30:21.328Z,8.32
2022-12-25T18:33:06.178Z,8.46
2022-12-25T18:35:51.182Z,8.61
2022-12-25T18:38:36.048Z,8.61
2022-12-25T18:41:21.027Z,8.49
2022-12-25T18:44:06.022Z,8.89
2022-12-25T18:46:50.986Z,8.70
2022-12-25T18:49:36.039Z,8.28
2022-12-25T18:52:48.166Z,8.71
2022-12-25T18:55:25.946Z,8.41
2022-12-25T18:58:10.786Z,8.31
2022-12-25T19:00:55.803Z,7.96
2022-12-25T19:03:41.214Z,8.19
2022-12-25T19:06:26.073Z,8.28
2022-12-25T19:09:11.211Z,8.43
2022-12-25T19:11:55.996Z,8.33
2022-12-25T19:14:47.397Z,8.23
2022-12-25T19:17:33.561Z,8.08
2022-12-25T19:20:18.343Z,7.92
2022-12-25T19:23:03.274Z,7.87
2022-12-25T19:25:48.058Z,7.80
2022-12-25T19:28:32.865Z,7.43
2022-12-25T19:31:17.825Z,7.83
2022-12-25T19:34:02.641Z,8.13
2022-12-25T19:36:47.861Z,7.92
2022-12-25T19:39:32.578Z,7.92
2022-12-25T19:42:17.608Z,8.27
2022-12-25T19:45:02.479Z,8.06
2022-12-25T19:47:47.313Z,8.40
2022-12-25T19:50:32.241Z,8.37
2022-12-25T19:53:17.092Z,8.16
2022-12-25T19:56:02.061Z,8.05
2022-12-25T19:58:47.720Z,8.43
2022-12-25T20:01:33.193Z,7.84
2022-12-25T20:04:18.558Z,8.04
2022-12-25T20:07:03.589Z,8.01
2022-12-25T20:09:48.387Z,7.78
2022-12-25T20:12:33.190Z,7.82
2022-12-25T20:15:18.146Z,7.99
2022-12-25T20:18:02.917Z,8.01
2022-12-25T20:20:48.025Z,7.95
2022-12-25T20:23:32.844Z,8.26
2022-12-25T20:26:17.945Z,8.15
2022-12-25T20:29:02.778Z,8.34
2022-12-25T20:31:47.811Z,8.14
2022-12-25T20:34:33.152Z,8.14
2022-12-25T20:37:18.054Z,8.41
2022-12-25T20:40:02.978Z,7.97
2022-12-25T20:42:47.981Z,7.94
2022-12-25T20:45:33.064Z,7.80
2022-12-25T20:48:18.364Z,7.99
2022-12-25T20:51:03.360Z,8.08
2022-12-25T20:53:48.220Z,8.08
2022-12-25T20:56:33.156Z,7.47
2022-12-25T20:59:18.176Z,7.40
2022-12-25T21:02:03.121Z,7.72
2022-12-25T21:04:53.962Z,8.07
2022-12-25T21:07:39.556Z,8.13
2022-12-25T21:10:24.483Z,8.14
2022-12-25T21:13:09.431Z,8.18
2022-12-25T21:15:54.280Z,7.44
2022-12-25T21:18:39.137Z,7.97
2022-12-25T21:21:23.909Z,7.76
2022-12-25T21:24:08.913Z,7.81
2022-12-25T21:26:53.658Z,8.05
2022-12-25T21:29:38.825Z,8.42
2022-12-25T21:32:23.830Z,8.18
2022-12-25T21:35:08.641Z,8.52
2022-12-25T21:37:53.622Z,8.52
2022-12-25T21:40:38.498Z,8.77
2022-12-25T21:43:23.411Z,8.66
2022-12-25T21:46:08.388Z,8.84
2022-12-25T21:48:53.228Z,8.27
2022-12-25T21:51:38.162Z,8.38
2022-12-25T21:54:23.060Z,8.11
2022-12-25T21:57:07.998Z,8.28
2022-12-25T21:59:52.754Z,8.01
2022-12-25T22:02:38.977Z,8.06
2022-12-25T22:05:24.200Z,8.10
2022-12-25T22:08:09.109Z,8.24
2022-12-25T22:10:53.960Z,8.04
2022-12-25T22:13:38.972Z,8.27
2022-12-25T22:16:23.977Z,8.19
2022-12-25T22:19:08.832Z,8.19
2022-12-25T22:21:53.782Z,8.10
2022-12-25T22:24:38.806Z,8.35
2022-12-25T22:27:23.783Z,7.97
2022-12-25T22:30:08.730Z,8.42
2022-12-25T22:32:53.694Z,8.34
2022-12-25T22:35:38.536Z,8.12
2022-12-25T22:38:23.421Z,8.22
2022-12-25T22:41:08.334Z,8.32
2022-12-25T22:44:16.623Z,8.47
2022-12-25T22:46:58.425Z,8.55
2022-12-25T22:49:43.280Z,8.49
2022-12-25T22:52:28.248Z,8.44
2022-12-25T22:55:13.546Z,8.51
2022-12-25T22:57:58.372Z,8.42
2022-12-25T23:00:46.454Z,8.56
2022-12-25T23:03:31.677Z,8.53
2022-12-25T23:06:17.104Z,8.67
2022-12-25T23:09:02.098Z,8.57
2022-12-25T23:11:46.930Z,8.64
2022-12-25T23:14:31.783Z,8.69
2022-12-25T23:17:16.548Z,8.68
2022-12-25T23:20:01.508Z,8.62
2022-12-25T23:22:46.455Z,8.78
2022-12-25T23:25:31.291Z,8.50
2022-12-25T23:28:16.333Z,8.53
2022-12-25T23:31:01.282Z,8.51
2022-12-25T23:33:46.125Z,8.56
2022-12-25T23:36:31.021Z,8.60
2022-12-25T23:39:15.994Z,8.59
2022-12-25T23:42:00.924Z,8.47
2022-12-25T23:44:46.045Z,8.56
2022-12-25T23:47:31.078Z,8.39
2022-12-25T23:50:15.980Z,8.21
2022-12-25T23:53:00.960Z,8.35
2022-12-25T23:55:50.042Z,8.47
2022-12-25T23:58:38.680Z,8.34
